sensor_id;sensor_type;location;lat;lon;timestamp;P1;durP1;ratioP1;P2;durP2;ratioP2
51686;SDS011;37774;52.192;4.584;2023-07-20T00:00:50;4.80;;;0.93;;
51686;SDS011;37774;52.192;4.584;2023-07-20T00:03:37;1.35;;;0.93;;
51686;SDS011;37774;52.192;4.584;2023-07-20T00:06:24;1.23;;;0.88;;
51686;SDS011;37774;52.192;4.584;2023-07-20T00:09:11;1.58;;;0.70;;
51686;SDS011;37774;52.192;4.584;2023-07-20T00:11:57;6.60;;;1.23;;
51686;SDS011;37774;52.192;4.584;2023-07-20T00:14:43;1.77;;;1.30;;
51686;SDS011;37774;52.192;4.584;2023-07-20T00:17:30;3.35;;;1.15;;
51686;SDS011;37774;52.192;4.584;2023-07-20T00:20:16;4.18;;;1.35;;
51686;SDS011;37774;52.192;4.584;2023-07-20T00:23:03;3.45;;;1.20;;
51686;SDS011;37774;52.192;4.584;2023-07-20T00:25:49;2.92;;;1.30;;
51686;SDS011;37774;52.192;4.584;2023-07-20T00:28:34;3.55;;;1.58;;
51686;SDS011;37774;52.192;4.584;2023-07-20T00:31:19;6.03;;;1.27;;
51686;SDS011;37774;52.192;4.584;2023-07-20T00:34:05;2.40;;;1.52;;
51686;SDS011;37774;52.192;4.584;2023-07-20T00:36:51;3.78;;;1.60;;
51686;SDS011;37774;52.192;4.584;2023-07-20T00:39:38;2.55;;;1.75;;
51686;SDS011;37774;52.192;4.584;2023-07-20T00:42:23;5.88;;;1.70;;
51686;SDS011;37774;52.192;4.584;2023-07-20T00:45:09;2.33;;;1.70;;
51686;SDS011;37774;52.192;4.584;2023-07-20T00:47:54;4.88;;;1.88;;
51686;SDS011;37774;52.192;4.584;2023-07-20T00:50:40;5.80;;;2.08;;
51686;SDS011;37774;52.192;4.584;2023-07-20T00:53:26;3.70;;;2.00;;
51686;SDS011;37774;52.192;4.584;2023-07-20T00:56:13;2.47;;;1.70;;
51686;SDS011;37774;52.192;4.584;2023-07-20T00:59:00;5.05;;;2.13;;
51686;SDS011;37774;52.192;4.584;2023-07-20T01:01:45;3.10;;;2.03;;
51686;SDS011;37774;52.192;4.584;2023-07-20T01:04:31;7.65;;;1.77;;
51686;SDS011;37774;52.192;4.584;2023-07-20T01:07:18;3.67;;;1.48;;
51686;SDS011;37774;52.192;4.584;2023-07-20T01:10:11;3.25;;;1.60;;
51686;SDS011;37774;52.192;4.584;2023-07-20T01:13:03;2.63;;;1.58;;
51686;SDS011;37774;52.192;4.584;2023-07-20T01:15:56;3.58;;;1.45;;
51686;SDS011;37774;52.192;4.584;2023-07-20T01:18:43;2.20;;;1.70;;
51686;SDS011;37774;52.192;4.584;2023-07-20T01:21:31;5.72;;;1.98;;
51686;SDS011;37774;52.192;4.584;2023-07-20T01:27:42;4.93;;;2.25;;
51686;SDS011;37774;52.192;4.584;2023-07-20T01:30:49;3.33;;;1.60;;
51686;SDS011;37774;52.192;4.584;2023-07-20T01:33:41;5.65;;;1.40;;
51686;SDS011;37774;52.192;4.584;2023-07-20T01:36:28;3.28;;;1.40;;
51686;SDS011;37774;52.192;4.584;2023-07-20T01:39:15;3.03;;;1.40;;
51686;SDS011;37774;52.192;4.584;2023-07-20T01:42:01;1.33;;;1.20;;
51686;SDS011;37774;52.192;4.584;2023-07-20T01:44:46;6.43;;;1.33;;
51686;SDS011;37774;52.192;4.584;2023-07-20T01:47:32;2.53;;;1.30;;
51686;SDS011;37774;52.192;4.584;2023-07-20T01:50:19;2.95;;;1.23;;
51686;SDS011;37774;52.192;4.584;2023-07-20T01:53:05;0.90;;;0.73;;
51686;SDS011;37774;52.192;4.584;2023-07-20T01:55:52;1.75;;;1.35;;
51686;SDS011;37774;52.192;4.584;2023-07-20T01:58:38;5.25;;;1.35;;
51686;SDS011;37774;52.192;4.584;2023-07-20T02:01:24;1.60;;;1.23;;
51686;SDS011;37774;52.192;4.584;2023-07-20T02:04:12;2.00;;;1.27;;
51686;SDS011;37774;52.192;4.584;2023-07-20T02:06:59;2.47;;;1.58;;
51686;SDS011;37774;52.192;4.584;2023-07-20T02:09:44;2.90;;;1.13;;
51686;SDS011;37774;52.192;4.584;2023-07-20T02:12:29;6.07;;;1.42;;
51686;SDS011;37774;52.192;4.584;2023-07-20T02:15:15;2.30;;;1.00;;
51686;SDS011;37774;52.192;4.584;2023-07-20T02:18:02;1.48;;;0.90;;
51686;SDS011;37774;52.192;4.584;2023-07-20T02:20:48;2.67;;;1.10;;
51686;SDS011;37774;52.192;4.584;2023-07-20T02:23:36;5.00;;;1.30;;
51686;SDS011;37774;52.192;4.584;2023-07-20T02:26:21;2.45;;;1.13;;
51686;SDS011;37774;52.192;4.584;2023-07-20T02:29:07;1.45;;;1.10;;
51686;SDS011;37774;52.192;4.584;2023-07-20T02:31:55;1.52;;;1.20;;
51686;SDS011;37774;52.192;4.584;2023-07-20T02:34:40;2.45;;;1.20;;
51686;SDS011;37774;52.192;4.584;2023-07-20T02:37:25;2.45;;;1.30;;
51686;SDS011;37774;52.192;4.584;2023-07-20T02:40:12;2.03;;;1.13;;
51686;SDS011;37774;52.192;4.584;2023-07-20T02:42:57;2.05;;;1.67;;
51686;SDS011;37774;52.192;4.584;2023-07-20T02:45:43;2.03;;;1.42;;
51686;SDS011;37774;52.192;4.584;2023-07-20T02:48:29;1.85;;;1.15;;
51686;SDS011;37774;52.192;4.584;2023-07-20T02:51:15;1.52;;;1.08;;
51686;SDS011;37774;52.192;4.584;2023-07-20T02:54:00;3.90;;;1.30;;
51686;SDS011;37774;52.192;4.584;2023-07-20T02:56:48;1.50;;;1.40;;
51686;SDS011;37774;52.192;4.584;2023-07-20T02:59:33;1.25;;;1.02;;
51686;SDS011;37774;52.192;4.584;2023-07-20T03:02:19;1.88;;;1.25;;
51686;SDS011;37774;52.192;4.584;2023-07-20T03:05:04;1.40;;;1.13;;
51686;SDS011;37774;52.192;4.584;2023-07-20T03:07:51;2.40;;;1.27;;
51686;SDS011;37774;52.192;4.584;2023-07-20T03:10:39;1.23;;;0.77;;
51686;SDS011;37774;52.192;4.584;2023-07-20T03:13:26;1.55;;;1.20;;
51686;SDS011;37774;52.192;4.584;2023-07-20T03:16:12;1.65;;;1.27;;
51686;SDS011;37774;52.192;4.584;2023-07-20T03:18:59;1.60;;;1.20;;
51686;SDS011;37774;52.192;4.584;2023-07-20T03:21:45;2.08;;;1.15;;
51686;SDS011;37774;52.192;4.584;2023-07-20T03:24:30;1.05;;;0.90;;
51686;SDS011;37774;52.192;4.584;2023-07-20T03:27:16;1.40;;;1.00;;
51686;SDS011;37774;52.192;4.584;2023-07-20T03:30:03;1.38;;;1.15;;
51686;SDS011;37774;52.192;4.584;2023-07-20T03:32:50;2.58;;;1.63;;
51686;SDS011;37774;52.192;4.584;2023-07-20T03:35:35;2.28;;;1.65;;
51686;SDS011;37774;52.192;4.584;2023-07-20T03:38:20;1.83;;;1.33;;
51686;SDS011;37774;52.192;4.584;2023-07-20T03:41:06;2.47;;;1.73;;
51686;SDS011;37774;52.192;4.584;2023-07-20T03:43:52;3.22;;;1.85;;
51686;SDS011;37774;52.192;4.584;2023-07-20T03:46:39;4.32;;;2.00;;
51686;SDS011;37774;52.192;4.584;2023-07-20T03:49:25;2.75;;;1.42;;
51686;SDS011;37774;52.192;4.584;2023-07-20T03:52:10;1.73;;;1.40;;
51686;SDS011;37774;52.192;4.584;2023-07-20T03:54:56;1.48;;;1.38;;
51686;SDS011;37774;52.192;4.584;2023-07-20T03:57:41;1.80;;;1.70;;
51686;SDS011;37774;52.192;4.584;2023-07-20T04:00:27;8.15;;;2.20;;
51686;SDS011;37774;52.192;4.584;2023-07-20T04:03:14;4.00;;;1.80;;
51686;SDS011;37774;52.192;4.584;2023-07-20T04:05:59;2.80;;;2.30;;
51686;SDS011;37774;52.192;4.584;2023-07-20T04:08:45;2.70;;;1.88;;
51686;SDS011;37774;52.192;4.584;2023-07-20T04:11:31;7.55;;;2.13;;
51686;SDS011;37774;52.192;4.584;2023-07-20T04:14:16;4.85;;;2.25;;
51686;SDS011;37774;52.192;4.584;2023-07-20T04:17:02;3.95;;;1.85;;
51686;SDS011;37774;52.192;4.584;2023-07-20T04:19:50;4.00;;;2.50;;
51686;SDS011;37774;52.192;4.584;2023-07-20T04:22:35;3.13;;;2.05;;
51686;SDS011;37774;52.192;4.584;2023-07-20T04:25:21;5.50;;;2.22;;
51686;SDS011;37774;52.192;4.584;2023-07-20T04:28:06;3.65;;;2.17;;
51686;SDS011;37774;52.192;4.584;2023-07-20T04:30:55;5.22;;;2.28;;
51686;SDS011;37774;52.192;4.584;2023-07-20T04:33:40;4.68;;;2.70;;
51686;SDS011;37774;52.192;4.584;2023-07-20T04:36:27;9.73;;;2.33;;
51686;SDS011;37774;52.192;4.584;2023-07-20T04:39:13;4.43;;;2.53;;
51686;SDS011;37774;52.192;4.584;2023-07-20T04:41:58;3.10;;;2.15;;
51686;SDS011;37774;52.192;4.584;2023-07-20T04:44:44;5.85;;;2.60;;
51686;SDS011;37774;52.192;4.584;2023-07-20T04:47:29;10.25;;;2.10;;
51686;SDS011;37774;52.192;4.584;2023-07-20T04:50:15;5.10;;;2.38;;
51686;SDS011;37774;52.192;4.584;2023-07-20T04:53:01;2.35;;;1.67;;
51686;SDS011;37774;52.192;4.584;2023-07-20T04:55:47;5.25;;;2.38;;
51686;SDS011;37774;52.192;4.584;2023-07-20T04:58:34;4.50;;;2.03;;
51686;SDS011;37774;52.192;4.584;2023-07-20T05:01:19;8.15;;;2.92;;
51686;SDS011;37774;52.192;4.584;2023-07-20T05:04:04;3.13;;;2.28;;
51686;SDS011;37774;52.192;4.584;2023-07-20T05:06:50;4.30;;;2.50;;
51686;SDS011;37774;52.192;4.584;2023-07-20T05:09:37;4.53;;;2.97;;
51686;SDS011;37774;52.192;4.584;2023-07-20T05:12:22;6.57;;;2.55;;
51686;SDS011;37774;52.192;4.584;2023-07-20T05:15:08;6.10;;;2.13;;
51686;SDS011;37774;52.192;4.584;2023-07-20T05:17:54;5.82;;;2.20;;
51686;SDS011;37774;52.192;4.584;2023-07-20T05:20:39;4.65;;;1.90;;
51686;SDS011;37774;52.192;4.584;2023-07-20T05:23:25;3.45;;;2.15;;
51686;SDS011;37774;52.192;4.584;2023-07-20T05:26:11;2.40;;;1.50;;
51686;SDS011;37774;52.192;4.584;2023-07-20T05:28:57;2.08;;;1.48;;
51686;SDS011;37774;52.192;4.584;2023-07-20T05:31:43;2.42;;;1.63;;
51686;SDS011;37774;52.192;4.584;2023-07-20T05:34:28;2.78;;;1.58;;
51686;SDS011;37774;52.192;4.584;2023-07-20T05:37:14;1.85;;;1.48;;
51686;SDS011;37774;52.192;4.584;2023-07-20T05:39:59;3.05;;;1.48;;
51686;SDS011;37774;52.192;4.584;2023-07-20T05:42:46;7.82;;;1.48;;
51686;SDS011;37774;52.192;4.584;2023-07-20T05:45:32;1.50;;;1.30;;
51686;SDS011;37774;52.192;4.584;2023-07-20T05:48:17;2.00;;;1.35;;
51686;SDS011;37774;52.192;4.584;2023-07-20T05:51:03;1.10;;;0.90;;
51686;SDS011;37774;52.192;4.584;2023-07-20T05:53:48;1.33;;;0.73;;
51686;SDS011;37774;52.192;4.584;2023-07-20T05:56:34;2.80;;;0.70;;
51686;SDS011;37774;52.192;4.584;2023-07-20T05:59:20;10.10;;;0.80;;
51686;SDS011;37774;52.192;4.584;2023-07-20T06:02:07;2.72;;;0.90;;
51686;SDS011;37774;52.192;4.584;2023-07-20T06:04:52;1.58;;;0.82;;
51686;SDS011;37774;52.192;4.584;2023-07-20T06:07:38;1.35;;;0.63;;
51686;SDS011;37774;52.192;4.584;2023-07-20T06:10:24;5.35;;;0.93;;
51686;SDS011;37774;52.192;4.584;2023-07-20T06:13:10;3.83;;;0.80;;
51686;SDS011;37774;52.192;4.584;2023-07-20T06:15:57;3.33;;;0.60;;
51686;SDS011;37774;52.192;4.584;2023-07-20T06:18:42;3.38;;;0.95;;
51686;SDS011;37774;52.192;4.584;2023-07-20T06:21:40;1.35;;;0.82;;
51686;SDS011;37774;52.192;4.584;2023-07-20T06:24:26;1.08;;;0.95;;
51686;SDS011;37774;52.192;4.584;2023-07-20T06:27:11;2.35;;;1.35;;
51686;SDS011;37774;52.192;4.584;2023-07-20T06:29:57;1.48;;;0.80;;
51686;SDS011;37774;52.192;4.584;2023-07-20T06:32:44;1.77;;;0.55;;
51686;SDS011;37774;52.192;4.584;2023-07-20T06:38:15;4.90;;;0.98;;
51686;SDS011;37774;52.192;4.584;2023-07-20T06:41:00;0.63;;;0.60;;
51686;SDS011;37774;52.192;4.584;2023-07-20T06:43:46;0.60;;;0.60;;
51686;SDS011;37774;52.192;4.584;2023-07-20T06:46:31;6.43;;;0.68;;
51686;SDS011;37774;52.192;4.584;2023-07-20T06:49:25;1.60;;;0.57;;
51686;SDS011;37774;52.192;4.584;2023-07-20T06:52:11;4.43;;;0.60;;
51686;SDS011;37774;52.192;4.584;2023-07-20T06:54:56;6.13;;;0.90;;
51686;SDS011;37774;52.192;4.584;2023-07-20T06:57:42;2.88;;;0.52;;
51686;SDS011;37774;52.192;4.584;2023-07-20T07:00:27;3.17;;;0.85;;
51686;SDS011;37774;52.192;4.584;2023-07-20T07:03:12;14.43;;;1.52;;
51686;SDS011;37774;52.192;4.584;2023-07-20T07:05:59;4.45;;;0.95;;
51686;SDS011;37774;52.192;4.584;2023-07-20T07:08:45;0.93;;;0.43;;
51686;SDS011;37774;52.192;4.584;2023-07-20T07:11:30;1.10;;;0.55;;
51686;SDS011;37774;52.192;4.584;2023-07-20T07:14:15;0.32;;;0.30;;
51686;SDS011;37774;52.192;4.584;2023-07-20T07:17:01;0.63;;;0.63;;
51686;SDS011;37774;52.192;4.584;2023-07-20T07:19:47;0.35;;;0.35;;
51686;SDS011;37774;52.192;4.584;2023-07-20T07:22:34;2.28;;;0.50;;
51686;SDS011;37774;52.192;4.584;2023-07-20T07:25:19;2.45;;;0.52;;
51686;SDS011;37774;52.192;4.584;2023-07-20T07:28:04;2.20;;;0.70;;
51686;SDS011;37774;52.192;4.584;2023-07-20T07:30:50;2.20;;;0.47;;
51686;SDS011;37774;52.192;4.584;2023-07-20T07:33:36;0.90;;;0.63;;
51686;SDS011;37774;52.192;4.584;2023-07-20T07:36:21;0.47;;;0.35;;
51686;SDS011;37774;52.192;4.584;2023-07-20T07:41:55;2.50;;;0.50;;
51686;SDS011;37774;52.192;4.584;2023-07-20T07:44:40;0.75;;;0.38;;
51686;SDS011;37774;52.192;4.584;2023-07-20T07:47:25;3.25;;;0.52;;
51686;SDS011;37774;52.192;4.584;2023-07-20T07:50:11;2.75;;;0.50;;
51686;SDS011;37774;52.192;4.584;2023-07-20T07:52:56;2.70;;;0.63;;
51686;SDS011;37774;52.192;4.584;2023-07-20T07:55:43;0.52;;;0.22;;
51686;SDS011;37774;52.192;4.584;2023-07-20T07:58:29;0.30;;;0.30;;
51686;SDS011;37774;52.192;4.584;2023-07-20T08:01:15;2.15;;;0.50;;
51686;SDS011;37774;52.192;4.584;2023-07-20T08:04:00;4.25;;;0.65;;
51686;SDS011;37774;52.192;4.584;2023-07-20T08:06:47;3.47;;;0.47;;
51686;SDS011;37774;52.192;4.584;2023-07-20T08:09:32;0.35;;;0.35;;
51686;SDS011;37774;52.192;4.584;2023-07-20T08:12:19;2.33;;;0.40;;
51686;SDS011;37774;52.192;4.584;2023-07-20T08:15:05;1.25;;;0.30;;
51686;SDS011;37774;52.192;4.584;2023-07-20T08:17:51;4.73;;;0.40;;
51686;SDS011;37774;52.192;4.584;2023-07-20T08:20:36;0.43;;;0.30;;
51686;SDS011;37774;52.192;4.584;2023-07-20T08:23:21;0.60;;;0.20;;
51686;SDS011;37774;52.192;4.584;2023-07-20T08:26:07;0.52;;;0.50;;
51686;SDS011;37774;52.192;4.584;2023-07-20T08:28:54;1.45;;;0.32;;
51686;SDS011;37774;52.192;4.584;2023-07-20T08:34:24;0.40;;;0.22;;
51686;SDS011;37774;52.192;4.584;2023-07-20T08:37:10;5.15;;;0.52;;
51686;SDS011;37774;52.192;4.584;2023-07-20T08:39:59;0.68;;;0.20;;
51686;SDS011;37774;52.192;4.584;2023-07-20T08:42:44;0.40;;;0.20;;
51686;SDS011;37774;52.192;4.584;2023-07-20T08:45:32;0.95;;;0.20;;
51686;SDS011;37774;52.192;4.584;2023-07-20T08:48:19;3.85;;;0.60;;
51686;SDS011;37774;52.192;4.584;2023-07-20T08:51:05;1.23;;;0.30;;
51686;SDS011;37774;52.192;4.584;2023-07-20T08:53:51;1.65;;;0.50;;
51686;SDS011;37774;52.192;4.584;2023-07-20T08:56:37;0.30;;;0.30;;
51686;SDS011;37774;52.192;4.584;2023-07-20T08:59:24;0.38;;;0.10;;
51686;SDS011;37774;52.192;4.584;2023-07-20T09:02:13;0.30;;;0.20;;
51686;SDS011;37774;52.192;4.584;2023-07-20T09:05:02;2.10;;;0.70;;
51686;SDS011;37774;52.192;4.584;2023-07-20T09:07:48;0.68;;;0.28;;
51686;SDS011;37774;52.192;4.584;2023-07-20T09:10:33;1.02;;;0.20;;
51686;SDS011;37774;52.192;4.584;2023-07-20T09:13:18;3.63;;;0.40;;
51686;SDS011;37774;52.192;4.584;2023-07-20T09:16:04;1.08;;;0.32;;
51686;SDS011;37774;52.192;4.584;2023-07-20T09:18:51;0.93;;;0.28;;
51686;SDS011;37774;52.192;4.584;2023-07-20T09:21:36;0.57;;;0.30;;
51686;SDS011;37774;52.192;4.584;2023-07-20T09:24:21;1.25;;;0.30;;
51686;SDS011;37774;52.192;4.584;2023-07-20T09:27:07;0.30;;;0.20;;
51686;SDS011;37774;52.192;4.584;2023-07-20T09:29:53;4.07;;;0.20;;
51686;SDS011;37774;52.192;4.584;2023-07-20T09:32:39;0.10;;;0.10;;
51686;SDS011;37774;52.192;4.584;2023-07-20T09:35:26;0.68;;;0.50;;
51686;SDS011;37774;52.192;4.584;2023-07-20T09:38:14;1.35;;;0.43;;
51686;SDS011;37774;52.192;4.584;2023-07-20T09:41:00;1.48;;;0.13;;
51686;SDS011;37774;52.192;4.584;2023-07-20T09:43:45;1.83;;;0.10;;
51686;SDS011;37774;52.192;4.584;2023-07-20T09:46:40;1.33;;;0.30;;
51686;SDS011;37774;52.192;4.584;2023-07-20T09:49:26;1.40;;;0.30;;
51686;SDS011;37774;52.192;4.584;2023-07-20T09:52:13;0.17;;;0.17;;
51686;SDS011;37774;52.192;4.584;2023-07-20T09:54:59;0.40;;;0.40;;
51686;SDS011;37774;52.192;4.584;2023-07-20T09:57:47;0.68;;;0.30;;
51686;SDS011;37774;52.192;4.584;2023-07-20T10:00:33;0.70;;;0.20;;
51686;SDS011;37774;52.192;4.584;2023-07-20T10:03:21;0.40;;;0.30;;
51686;SDS011;37774;52.192;4.584;2023-07-20T10:06:07;2.20;;;0.40;;
51686;SDS011;37774;52.192;4.584;2023-07-20T10:08:58;0.73;;;0.50;;
51686;SDS011;37774;52.192;4.584;2023-07-20T10:11:49;1.05;;;0.60;;
51686;SDS011;37774;52.192;4.584;2023-07-20T10:14:35;2.00;;;0.45;;
51686;SDS011;37774;52.192;4.584;2023-07-20T10:17:26;0.20;;;0.20;;
51686;SDS011;37774;52.192;4.584;2023-07-20T10:20:11;0.32;;;0.30;;
51686;SDS011;37774;52.192;4.584;2023-07-20T10:22:57;0.55;;;0.20;;
51686;SDS011;37774;52.192;4.584;2023-07-20T10:25:45;1.13;;;0.30;;
51686;SDS011;37774;52.192;4.584;2023-07-20T10:28:31;0.60;;;0.30;;
51686;SDS011;37774;52.192;4.584;2023-07-20T10:31:17;1.25;;;0.50;;
51686;SDS011;37774;52.192;4.584;2023-07-20T10:34:03;1.42;;;0.35;;
51686;SDS011;37774;52.192;4.584;2023-07-20T10:36:49;0.68;;;0.30;;
51686;SDS011;37774;52.192;4.584;2023-07-20T10:39:35;4.00;;;0.30;;
51686;SDS011;37774;52.192;4.584;2023-07-20T10:42:22;0.65;;;0.20;;
51686;SDS011;37774;52.192;4.584;2023-07-20T10:45:08;2.92;;;0.40;;
51686;SDS011;37774;52.192;4.584;2023-07-20T10:47:54;2.38;;;0.45;;
51686;SDS011;37774;52.192;4.584;2023-07-20T10:50:40;6.72;;;0.30;;
51686;SDS011;37774;52.192;4.584;2023-07-20T10:53:26;0.20;;;0.20;;
51686;SDS011;37774;52.192;4.584;2023-07-20T10:56:12;0.22;;;0.20;;
51686;SDS011;37774;52.192;4.584;2023-07-20T11:01:46;0.80;;;0.30;;
51686;SDS011;37774;52.192;4.584;2023-07-20T11:04:39;1.42;;;0.47;;
51686;SDS011;37774;52.192;4.584;2023-07-20T11:07:36;1.63;;;0.20;;
51686;SDS011;37774;52.192;4.584;2023-07-20T11:10:22;1.33;;;0.38;;
51686;SDS011;37774;52.192;4.584;2023-07-20T11:13:15;1.75;;;0.50;;
51686;SDS011;37774;52.192;4.584;2023-07-20T11:16:06;0.28;;;0.17;;
51686;SDS011;37774;52.192;4.584;2023-07-20T11:18:51;0.20;;;0.17;;
51686;SDS011;37774;52.192;4.584;2023-07-20T11:21:37;1.75;;;0.32;;
51686;SDS011;37774;52.192;4.584;2023-07-20T11:24:23;0.47;;;0.25;;
51686;SDS011;37774;52.192;4.584;2023-07-20T11:27:09;2.35;;;0.30;;
51686;SDS011;37774;52.192;4.584;2023-07-20T11:29:54;2.38;;;0.45;;
51686;SDS011;37774;52.192;4.584;2023-07-20T11:32:47;0.77;;;0.40;;
51686;SDS011;37774;52.192;4.584;2023-07-20T11:35:34;2.20;;;0.20;;
51686;SDS011;37774;52.192;4.584;2023-07-20T11:38:21;2.40;;;0.30;;
51686;SDS011;37774;52.192;4.584;2023-07-20T11:41:07;5.25;;;0.30;;
51686;SDS011;37774;52.192;4.584;2023-07-20T11:43:53;0.20;;;0.10;;
51686;SDS011;37774;52.192;4.584;2023-07-20T11:46:39;1.98;;;0.60;;
51686;SDS011;37774;52.192;4.584;2023-07-20T11:49:27;0.67;;;0.37;;
51686;SDS011;37774;52.192;4.584;2023-07-20T11:55:00;1.27;;;0.52;;
51686;SDS011;37774;52.192;4.584;2023-07-20T11:58:03;1.20;;;0.30;;
51686;SDS011;37774;52.192;4.584;2023-07-20T12:00:49;3.53;;;0.65;;
51686;SDS011;37774;52.192;4.584;2023-07-20T12:03:34;0.43;;;0.40;;
51686;SDS011;37774;52.192;4.584;2023-07-20T12:06:23;0.47;;;0.10;;
51686;SDS011;37774;52.192;4.584;2023-07-20T12:09:12;0.40;;;0.20;;
51686;SDS011;37774;52.192;4.584;2023-07-20T12:12:00;1.02;;;0.20;;
51686;SDS011;37774;52.192;4.584;2023-07-20T12:14:54;1.13;;;0.20;;
51686;SDS011;37774;52.192;4.584;2023-07-20T12:17:41;1.33;;;0.20;;
51686;SDS011;37774;52.192;4.584;2023-07-20T12:20:27;0.45;;;0.30;;
51686;SDS011;37774;52.192;4.584;2023-07-20T12:23:16;1.08;;;0.40;;
51686;SDS011;37774;52.192;4.584;2023-07-20T12:26:02;1.50;;;0.30;;
51686;SDS011;37774;52.192;4.584;2023-07-20T12:28:48;2.60;;;1.00;;
51686;SDS011;37774;52.192;4.584;2023-07-20T12:31:36;0.73;;;0.22;;
51686;SDS011;37774;52.192;4.584;2023-07-20T12:34:21;2.28;;;0.30;;
51686;SDS011;37774;52.192;4.584;2023-07-20T12:37:06;1.08;;;0.20;;
51686;SDS011;37774;52.192;4.584;2023-07-20T12:39:53;0.50;;;0.30;;
51686;SDS011;37774;52.192;4.584;2023-07-20T12:42:39;0.20;;;0.20;;
51686;SDS011;37774;52.192;4.584;2023-07-20T12:45:24;0.90;;;0.20;;
51686;SDS011;37774;52.192;4.584;2023-07-20T12:48:10;2.72;;;0.40;;
51686;SDS011;37774;52.192;4.584;2023-07-20T12:50:55;2.67;;;0.32;;
51686;SDS011;37774;52.192;4.584;2023-07-20T12:53:41;0.32;;;0.25;;
51686;SDS011;37774;52.192;4.584;2023-07-20T12:56:27;0.75;;;0.40;;
51686;SDS011;37774;52.192;4.584;2023-07-20T12:59:13;1.95;;;0.57;;
51686;SDS011;37774;52.192;4.584;2023-07-20T13:01:59;0.57;;;0.40;;
51686;SDS011;37774;52.192;4.584;2023-07-20T13:04:44;0.20;;;0.20;;
51686;SDS011;37774;52.192;4.584;2023-07-20T13:07:30;0.70;;;0.30;;
51686;SDS011;37774;52.192;4.584;2023-07-20T13:10:17;0.47;;;0.20;;
51686;SDS011;37774;52.192;4.584;2023-07-20T13:13:04;0.82;;;0.45;;
51686;SDS011;37774;52.192;4.584;2023-07-20T13:15:49;0.60;;;0.30;;
51686;SDS011;37774;52.192;4.584;2023-07-20T13:18:34;1.02;;;0.45;;
51686;SDS011;37774;52.192;4.584;2023-07-20T13:21:20;0.65;;;0.40;;
51686;SDS011;37774;52.192;4.584;2023-07-20T13:24:06;0.75;;;0.40;;
51686;SDS011;37774;52.192;4.584;2023-07-20T13:26:51;0.57;;;0.30;;
51686;SDS011;37774;52.192;4.584;2023-07-20T13:29:38;0.73;;;0.28;;
51686;SDS011;37774;52.192;4.584;2023-07-20T13:32:23;0.95;;;0.30;;
51686;SDS011;37774;52.192;4.584;2023-07-20T13:35:09;0.60;;;0.30;;
51686;SDS011;37774;52.192;4.584;2023-07-20T13:37:54;1.55;;;0.22;;
51686;SDS011;37774;52.192;4.584;2023-07-20T13:40:40;0.75;;;0.43;;
51686;SDS011;37774;52.192;4.584;2023-07-20T13:43:26;1.23;;;0.28;;
51686;SDS011;37774;52.192;4.584;2023-07-20T13:46:13;2.33;;;0.30;;
51686;SDS011;37774;52.192;4.584;2023-07-20T13:48:58;1.27;;;0.20;;
51686;SDS011;37774;52.192;4.584;2023-07-20T13:51:44;0.52;;;0.35;;
51686;SDS011;37774;52.192;4.584;2023-07-20T13:54:29;2.95;;;0.32;;
51686;SDS011;37774;52.192;4.584;2023-07-20T13:57:15;0.70;;;0.25;;
51686;SDS011;37774;52.192;4.584;2023-07-20T14:00:00;4.45;;;0.40;;
51686;SDS011;37774;52.192;4.584;2023-07-20T14:02:47;1.38;;;0.30;;
51686;SDS011;37774;52.192;4.584;2023-07-20T14:05:33;0.45;;;0.32;;
51686;SDS011;37774;52.192;4.584;2023-07-20T14:08:18;0.45;;;0.20;;
51686;SDS011;37774;52.192;4.584;2023-07-20T14:11:04;2.00;;;0.30;;
51686;SDS011;37774;52.192;4.584;2023-07-20T14:13:49;3.47;;;0.63;;
51686;SDS011;37774;52.192;4.584;2023-07-20T14:16:35;0.63;;;0.13;;
51686;SDS011;37774;52.192;4.584;2023-07-20T14:19:22;0.93;;;0.30;;
51686;SDS011;37774;52.192;4.584;2023-07-20T14:22:07;6.82;;;0.40;;
51686;SDS011;37774;52.192;4.584;2023-07-20T14:24:52;0.38;;;0.22;;
51686;SDS011;37774;52.192;4.584;2023-07-20T14:27:38;2.42;;;0.30;;
51686;SDS011;37774;52.192;4.584;2023-07-20T14:30:23;3.10;;;0.32;;
51686;SDS011;37774;52.192;4.584;2023-07-20T14:33:09;0.95;;;0.30;;
51686;SDS011;37774;52.192;4.584;2023-07-20T14:35:56;0.70;;;0.30;;
51686;SDS011;37774;52.192;4.584;2023-07-20T14:38:41;0.47;;;0.22;;
51686;SDS011;37774;52.192;4.584;2023-07-20T14:41:26;0.30;;;0.30;;
51686;SDS011;37774;52.192;4.584;2023-07-20T14:44:12;0.82;;;0.35;;
51686;SDS011;37774;52.192;4.584;2023-07-20T14:46:57;1.45;;;0.20;;
51686;SDS011;37774;52.192;4.584;2023-07-20T14:49:43;1.73;;;0.50;;
51686;SDS011;37774;52.192;4.584;2023-07-20T14:52:30;0.47;;;0.20;;
51686;SDS011;37774;52.192;4.584;2023-07-20T14:55:15;1.33;;;0.25;;
51686;SDS011;37774;52.192;4.584;2023-07-20T14:58:01;1.88;;;0.20;;
51686;SDS011;37774;52.192;4.584;2023-07-20T15:00:46;0.43;;;0.30;;
51686;SDS011;37774;52.192;4.584;2023-07-20T15:03:32;0.32;;;0.20;;
51686;SDS011;37774;52.192;4.584;2023-07-20T15:06:17;0.20;;;0.20;;
51686;SDS011;37774;52.192;4.584;2023-07-20T15:09:04;2.65;;;0.35;;
51686;SDS011;37774;52.192;4.584;2023-07-20T15:11:49;0.45;;;0.32;;
51686;SDS011;37774;52.192;4.584;2023-07-20T15:14:35;0.20;;;0.20;;
51686;SDS011;37774;52.192;4.584;2023-07-20T15:17:22;1.25;;;0.20;;
51686;SDS011;37774;52.192;4.584;2023-07-20T15:20:10;0.85;;;0.30;;
51686;SDS011;37774;52.192;4.584;2023-07-20T15:22:59;0.95;;;0.28;;
51686;SDS011;37774;52.192;4.584;2023-07-20T15:25:46;0.82;;;0.30;;
51686;SDS011;37774;52.192;4.584;2023-07-20T15:28:31;1.30;;;0.30;;
51686;SDS011;37774;52.192;4.584;2023-07-20T15:31:17;0.20;;;0.20;;
51686;SDS011;37774;52.192;4.584;2023-07-20T15:34:02;3.58;;;0.52;;
51686;SDS011;37774;52.192;4.584;2023-07-20T15:36:48;0.63;;;0.30;;
51686;SDS011;37774;52.192;4.584;2023-07-20T15:39:33;0.65;;;0.10;;
51686;SDS011;37774;52.192;4.584;2023-07-20T15:42:20;0.55;;;0.20;;
51686;SDS011;37774;52.192;4.584;2023-07-20T15:45:14;0.20;;;0.20;;
51686;SDS011;37774;52.192;4.584;2023-07-20T15:48:06;0.40;;;0.20;;
51686;SDS011;37774;52.192;4.584;2023-07-20T15:50:51;0.50;;;0.30;;
51686;SDS011;37774;52.192;4.584;2023-07-20T15:53:39;2.78;;;0.38;;
51686;SDS011;37774;52.192;4.584;2023-07-20T15:56:24;1.80;;;0.63;;
51686;SDS011;37774;52.192;4.584;2023-07-20T15:59:11;0.35;;;0.20;;
51686;SDS011;37774;52.192;4.584;2023-07-20T16:01:58;0.38;;;0.22;;
51686;SDS011;37774;52.192;4.584;2023-07-20T16:04:43;2.40;;;0.57;;
51686;SDS011;37774;52.192;4.584;2023-07-20T16:07:30;0.45;;;0.30;;
51686;SDS011;37774;52.192;4.584;2023-07-20T16:10:15;0.20;;;0.20;;
51686;SDS011;37774;52.192;4.584;2023-07-20T16:13:00;0.50;;;0.40;;
51686;SDS011;37774;52.192;4.584;2023-07-20T16:15:48;0.10;;;0.10;;
51686;SDS011;37774;52.192;4.584;2023-07-20T16:18:34;4.57;;;0.38;;
51686;SDS011;37774;52.192;4.584;2023-07-20T16:21:19;0.98;;;0.30;;
51686;SDS011;37774;52.192;4.584;2023-07-20T16:24:05;2.15;;;0.65;;
51686;SDS011;37774;52.192;4.584;2023-07-20T16:26:50;0.60;;;0.20;;
51686;SDS011;37774;52.192;4.584;2023-07-20T16:29:35;0.60;;;0.32;;
51686;SDS011;37774;52.192;4.584;2023-07-20T16:32:22;1.65;;;0.40;;
51686;SDS011;37774;52.192;4.584;2023-07-20T16:35:08;2.63;;;0.28;;
51686;SDS011;37774;52.192;4.584;2023-07-20T16:37:55;8.07;;;0.60;;
51686;SDS011;37774;52.192;4.584;2023-07-20T16:40:40;0.93;;;0.20;;
51686;SDS011;37774;52.192;4.584;2023-07-20T16:43:25;0.80;;;0.40;;
51686;SDS011;37774;52.192;4.584;2023-07-20T16:46:11;0.52;;;0.22;;
51686;SDS011;37774;52.192;4.584;2023-07-20T16:48:58;1.52;;;0.40;;
51686;SDS011;37774;52.192;4.584;2023-07-20T16:51:47;1.65;;;0.30;;
51686;SDS011;37774;52.192;4.584;2023-07-20T16:54:33;0.35;;;0.30;;
51686;SDS011;37774;52.192;4.584;2023-07-20T16:57:20;0.65;;;0.22;;
51686;SDS011;37774;52.192;4.584;2023-07-20T17:00:06;1.27;;;0.30;;